Lesley Pg — MXUG5 — position and weather

sailwx.info

Track history (hours):
 
Tides and Currents Weather Stations Pressure Air Temp Water Temp Dewpoint Dewpoint Depression Visibility Wind Speed Wind Dir Waves Ship Positions

Lesley Pg

Last reported at 2016-Jul-24 03:29 UTC. Time now 2016-Jul-26 00:44 UTC.
Position N 16°20' W 062°14'.

Length 102 m; draft 4.6 m.

Type: Tanker. MMSI: 234910000.

Date/timePositionNaut miles runAvg speedWind from/ knotsBaromVisibWave heightAir tempDewpointWater temp
2016-Jul-24 03:29N 16°20' W 062°14'1010.8
2016-Jul-24 02:34N 16°29' W 062°20'1110.9
2016-Jul-24 01:33N 16°38' W 062°25'5 0.2
2016-Jul-23 02:33N 16°43' W 062°25'9 9.3
2016-Jul-23 01:33N 16°36' W 062°19'9 9.5
2016-Jul-23 00:33N 16°28' W 062°13'45 1.7
2016-Jul-21 22:08N 16°10' W 061°31'4 0.4
2016-Jul-21 10:33N 16°14' W 061°33'318 9.4
2016-Jul-20 00:30N 10°56' W 061°52'1314.1
2016-Jul-19 23:33N 10°43' W 061°49'1212.2
2016-Jul-19 22:33N 10°33' W 061°43'1212.3
2016-Jul-19 21:33N 10°24' W 061°34'3 2.8
2016-Jul-19 20:32N 10°22' W 061°32'0 0.0
2016-Jul-19 19:32N 10°22' W 061°32'0 0.0
2016-Jul-19 18:20N 10°22' W 061°32'0 0.0
2016-Jul-19 17:23N 10°22' W 061°32'0 0.0
2016-Jul-19 16:32N 10°22' W 061°32'0 0.0
2016-Jul-19 15:32N 10°22' W 061°32'0 0.0
2016-Jul-19 14:29N 10°22' W 061°32'0 0.0
2016-Jul-19 13:29N 10°22' W 061°32'0 0.0
2016-Jul-19 12:32N 10°22' W 061°32'0 0.0
2016-Jul-19 11:32N 10°22' W 061°32'0 0.0
2016-Jul-19 10:29N 10°22' W 061°32'0 0.0
2016-Jul-19 09:32N 10°22' W 061°32'0 0.0
2016-Jul-19 08:32N 10°22' W 061°32'0 0.0
2016-Jul-19 07:32N 10°22' W 061°32'0 0.0
2016-Jul-19 04:32N 10°22' W 061°32'0 0.0
2016-Jul-19 03:20N 10°22' W 061°32'0 0.0
2016-Jul-19 02:23N 10°22' W 061°32'0 0.0
2016-Jul-19 01:26N 10°22' W 061°32'0 0.0
2016-Jul-19 00:32N 10°22' W 061°32'0 0.0
2016-Jul-18 23:29N 10°22' W 061°32'0 0.0
2016-Jul-18 22:32N 10°22' W 061°32'0 0.0
2016-Jul-18 21:32N 10°22' W 061°32'0 0.0
2016-Jul-18 20:26N 10°22' W 061°32'0 0.0
2016-Jul-18 19:32N 10°22' W 061°32'0 0.0
2016-Jul-18 18:29N 10°22' W 061°32'0 0.0
2016-Jul-18 17:23N 10°22' W 061°31'0 0.1
2016-Jul-18 16:32N 10°22' W 061°32'3 3.3
2016-Jul-18 15:33N 10°24' W 061°34'1212.1
2016-Jul-18 14:33N 10°33' W 061°43'1110.7
2016-Jul-18 13:33N 10°41' W 061°49'8 8.5
2016-Jul-18 12:33N 10°50' W 061°50'47711.2
2016-Jul-16 18:07N 18°22' W 064°27'5 9.3
2016-Jul-16 17:33N 18°27' W 064°27'0 0.0
2016-Jul-16 13:07N 18°27' W 064°26'0 0.2
2016-Jul-16 12:33N 18°27' W 064°27'9 8.8
2016-Jul-16 11:33N 18°25' W 064°35'0 0.0
2016-Jul-15 10:32N 18°24' W 064°35'6 5.5
2016-Jul-15 09:29N 18°20' W 064°32'53 7.4
2016-Jul-15 02:21N 18°11' W 063°37'6 7.7
2016-Jul-15 01:31N 18°10' W 063°30'8 7.5
2016-Jul-15 00:25N 18°08' W 063°22'7 7.4
2016-Jul-14 23:30N 18°07' W 063°15'7 7.6
2016-Jul-14 22:33N 18°08' W 063°07'  
Track history (hours):
 
Tides and Currents Weather Stations Pressure Air Temp Water Temp Dewpoint Dewpoint Depression Visibility Wind Speed Wind Dir Waves Ship Positions

Lesley Pg

Last reported at 2016-Jul-24 03:29 UTC. Time now 2016-Jul-26 00:44 UTC.
Position N 16°20' W 062°14'.

Length 102 m; draft 4.6 m.

Type: Tanker. MMSI: 234910000.

Date/timePositionNaut miles runAvg speedWind from/ knotsBaromVisibWave heightAir tempDewpointWater temp
2016-Jul-24 03:29N 16°20' W 062°14'1010.8
2016-Jul-24 02:34N 16°29' W 062°20'1110.9
2016-Jul-24 01:33N 16°38' W 062°25'5 0.2
2016-Jul-23 02:33N 16°43' W 062°25'9 9.3
2016-Jul-23 01:33N 16°36' W 062°19'9 9.5
2016-Jul-23 00:33N 16°28' W 062°13'45 1.7
2016-Jul-21 22:08N 16°10' W 061°31'4 0.4
2016-Jul-21 10:33N 16°14' W 061°33'318 9.4
2016-Jul-20 00:30N 10°56' W 061°52'1314.1
2016-Jul-19 23:33N 10°43' W 061°49'1212.2
2016-Jul-19 22:33N 10°33' W 061°43'1212.3
2016-Jul-19 21:33N 10°24' W 061°34'3 2.8
2016-Jul-19 20:32N 10°22' W 061°32'0 0.0
2016-Jul-19 19:32N 10°22' W 061°32'0 0.0
2016-Jul-19 18:20N 10°22' W 061°32'0 0.0
2016-Jul-19 17:23N 10°22' W 061°32'0 0.0
2016-Jul-19 16:32N 10°22' W 061°32'0 0.0
2016-Jul-19 15:32N 10°22' W 061°32'0 0.0
2016-Jul-19 14:29N 10°22' W 061°32'0 0.0
2016-Jul-19 13:29N 10°22' W 061°32'0 0.0
2016-Jul-19 12:32N 10°22' W 061°32'0 0.0
2016-Jul-19 11:32N 10°22' W 061°32'0 0.0
2016-Jul-19 10:29N 10°22' W 061°32'0 0.0
2016-Jul-19 09:32N 10°22' W 061°32'0 0.0
2016-Jul-19 08:32N 10°22' W 061°32'0 0.0
2016-Jul-19 07:32N 10°22' W 061°32'0 0.0
2016-Jul-19 04:32N 10°22' W 061°32'0 0.0
2016-Jul-19 03:20N 10°22' W 061°32'0 0.0
2016-Jul-19 02:23N 10°22' W 061°32'0 0.0
2016-Jul-19 01:26N 10°22' W 061°32'0 0.0
2016-Jul-19 00:32N 10°22' W 061°32'0 0.0
2016-Jul-18 23:29N 10°22' W 061°32'0 0.0
2016-Jul-18 22:32N 10°22' W 061°32'0 0.0
2016-Jul-18 21:32N 10°22' W 061°32'0 0.0
2016-Jul-18 20:26N 10°22' W 061°32'0 0.0
2016-Jul-18 19:32N 10°22' W 061°32'0 0.0
2016-Jul-18 18:29N 10°22' W 061°32'0 0.0
2016-Jul-18 17:23N 10°22' W 061°31'0 0.1
2016-Jul-18 16:32N 10°22' W 061°32'3 3.3
2016-Jul-18 15:33N 10°24' W 061°34'1212.1
2016-Jul-18 14:33N 10°33' W 061°43'1110.7
2016-Jul-18 13:33N 10°41' W 061°49'8 8.5
2016-Jul-18 12:33N 10°50' W 061°50'47711.2
2016-Jul-16 18:07N 18°22' W 064°27'5 9.3
2016-Jul-16 17:33N 18°27' W 064°27'0 0.0
2016-Jul-16 13:07N 18°27' W 064°26'0 0.2
2016-Jul-16 12:33N 18°27' W 064°27'9 8.8
2016-Jul-16 11:33N 18°25' W 064°35'0 0.0
2016-Jul-15 10:32N 18°24' W 064°35'6 5.5
2016-Jul-15 09:29N 18°20' W 064°32'53 7.4
2016-Jul-15 02:21N 18°11' W 063°37'6 7.7
2016-Jul-15 01:31N 18°10' W 063°30'8 7.5
2016-Jul-15 00:25N 18°08' W 063°22'7 7.4
2016-Jul-14 23:30N 18°07' W 063°15'7 7.6
2016-Jul-14 22:33N 18°08' W 063°07'  

Dump ship's entire track history